sensor_id;sensor_type;location;lat;lon;timestamp;pressure;altitude;pressure_sealevel;temperature;humidity
8069;BME280;4077;43.702;24.896;2023-07-13T00:01:51;99362.25;;;21.74;100.00
8069;BME280;4077;43.702;24.896;2023-07-13T00:04:19;99367.78;;;21.67;100.00
8069;BME280;4077;43.702;24.896;2023-07-13T00:06:46;99366.94;;;21.66;100.00
8069;BME280;4077;43.702;24.896;2023-07-13T00:09:13;99370.47;;;21.65;100.00
8069;BME280;4077;43.702;24.896;2023-07-13T00:11:39;99368.78;;;21.64;100.00
8069;BME280;4077;43.702;24.896;2023-07-13T00:14:05;99360.19;;;21.59;100.00
8069;BME280;4077;43.702;24.896;2023-07-13T00:16:33;99367.28;;;21.57;100.00
8069;BME280;4077;43.702;24.896;2023-07-13T00:18:58;99367.28;;;21.57;100.00
8069;BME280;4077;43.702;24.896;2023-07-13T00:21:26;99362.44;;;21.45;100.00
8069;BME280;4077;43.702;24.896;2023-07-13T00:23:51;99358.97;;;21.44;100.00
8069;BME280;4077;43.702;24.896;2023-07-13T00:26:17;99353.88;;;21.40;100.00
8069;BME280;4077;43.702;24.896;2023-07-13T00:28:43;99355.00;;;21.33;100.00
8069;BME280;4077;43.702;24.896;2023-07-13T00:31:10;99356.66;;;21.35;100.00
8069;BME280;4077;43.702;24.896;2023-07-13T00:33:36;99359.31;;;21.34;100.00
8069;BME280;4077;43.702;24.896;2023-07-13T00:36:02;99360.41;;;21.28;100.00
8069;BME280;4077;43.702;24.896;2023-07-13T00:38:28;99354.38;;;21.24;100.00
8069;BME280;4077;43.702;24.896;2023-07-13T00:40:53;99344.06;;;21.18;100.00
8069;BME280;4077;43.702;24.896;2023-07-13T00:43:21;99340.44;;;21.22;100.00
8069;BME280;4077;43.702;24.896;2023-07-13T00:48:17;99336.63;;;21.33;100.00
8069;BME280;4077;43.702;24.896;2023-07-13T00:50:44;99341.78;;;21.36;100.00
8069;BME280;4077;43.702;24.896;2023-07-13T00:53:12;99345.41;;;21.32;100.00
8069;BME280;4077;43.702;24.896;2023-07-13T00:55:38;99339.28;;;21.31;100.00
8069;BME280;4077;43.702;24.896;2023-07-13T00:58:05;99337.59;;;21.30;100.00
8069;BME280;4077;43.702;24.896;2023-07-13T01:00:34;99344.19;;;21.42;100.00
8069;BME280;4077;43.702;24.896;2023-07-13T01:03:02;99346.47;;;21.51;100.00
8069;BME280;4077;43.702;24.896;2023-07-13T01:05:30;99323.47;;;21.33;100.00
8069;BME280;4077;43.702;24.896;2023-07-13T01:07:57;99332.13;;;21.36;100.00
8069;BME280;4077;43.702;24.896;2023-07-13T01:10:25;99338.16;;;21.63;100.00
8069;BME280;4077;43.702;24.896;2023-07-13T01:12:50;99336.25;;;21.43;100.00
8069;BME280;4077;43.702;24.896;2023-07-13T01:15:52;99336.97;;;21.47;100.00
8069;BME280;4077;43.702;24.896;2023-07-13T01:18:21;99341.44;;;21.45;100.00
8069;BME280;4077;43.702;24.896;2023-07-13T01:20:57;99338.94;;;21.42;100.00
8069;BME280;4077;43.702;24.896;2023-07-13T01:23:25;99339.31;;;21.56;100.00
8069;BME280;4077;43.702;24.896;2023-07-13T01:25:51;99342.94;;;21.75;100.00
8069;BME280;4077;43.702;24.896;2023-07-13T01:28:17;99342.59;;;21.61;100.00
8069;BME280;4077;43.702;24.896;2023-07-13T01:30:44;99332.34;;;21.55;100.00
8069;BME280;4077;43.702;24.896;2023-07-13T01:33:16;99337.25;;;21.64;100.00
8069;BME280;4077;43.702;24.896;2023-07-13T01:35:42;99336.63;;;21.57;100.00
8069;BME280;4077;43.702;24.896;2023-07-13T01:38:09;99336.63;;;21.81;100.00
8069;BME280;4077;43.702;24.896;2023-07-13T01:40:35;99338.97;;;21.65;100.00
8069;BME280;4077;43.702;24.896;2023-07-13T01:43:01;99328.72;;;21.57;100.00
8069;BME280;4077;43.702;24.896;2023-07-13T01:45:26;99324.34;;;21.58;100.00
8069;BME280;4077;43.702;24.896;2023-07-13T01:47:52;99330.28;;;21.63;100.00
8069;BME280;4077;43.702;24.896;2023-07-13T01:50:18;99332.22;;;21.58;100.00
8069;BME280;4077;43.702;24.896;2023-07-13T01:52:43;99338.25;;;21.60;100.00
8069;BME280;4077;43.702;24.896;2023-07-13T01:55:10;99330.38;;;21.60;100.00
8069;BME280;4077;43.702;24.896;2023-07-13T01:57:36;99337.94;;;21.69;100.00
8069;BME280;4077;43.702;24.896;2023-07-13T02:00:04;99337.09;;;21.69;100.00
8069;BME280;4077;43.702;24.896;2023-07-13T02:02:30;99341.53;;;21.67;100.00
8069;BME280;4077;43.702;24.896;2023-07-13T02:04:56;99357.94;;;21.73;100.00
8069;BME280;4077;43.702;24.896;2023-07-13T02:07:22;99359.19;;;21.63;100.00
8069;BME280;4077;43.702;24.896;2023-07-13T02:09:47;99352.22;;;21.62;100.00
8069;BME280;4077;43.702;24.896;2023-07-13T02:12:13;99363.19;;;21.73;100.00
8069;BME280;4077;43.702;24.896;2023-07-13T02:14:38;99359.53;;;21.77;100.00
8069;BME280;4077;43.702;24.896;2023-07-13T02:17:04;99364.94;;;21.73;100.00
8069;BME280;4077;43.702;24.896;2023-07-13T02:19:30;99365.75;;;21.75;100.00
8069;BME280;4077;43.702;24.896;2023-07-13T02:21:59;99356.44;;;21.66;100.00
8069;BME280;4077;43.702;24.896;2023-07-13T02:24:25;99360.91;;;21.64;100.00
8069;BME280;4077;43.702;24.896;2023-07-13T02:26:50;99362.13;;;21.54;100.00
8069;BME280;4077;43.702;24.896;2023-07-13T02:29:16;99361.44;;;21.49;100.00
8069;BME280;4077;43.702;24.896;2023-07-13T02:31:41;99358.06;;;21.45;100.00
8069;BME280;4077;43.702;24.896;2023-07-13T02:34:06;99356.91;;;21.52;100.00
8069;BME280;4077;43.702;24.896;2023-07-13T02:36:32;99367.16;;;21.60;100.00
8069;BME280;4077;43.702;24.896;2023-07-13T02:39:01;99362.97;;;21.54;100.00
8069;BME280;4077;43.702;24.896;2023-07-13T02:41:28;99375.03;;;21.60;100.00
8069;BME280;4077;43.702;24.896;2023-07-13T02:43:53;99368.00;;;21.61;100.00
8069;BME280;4077;43.702;24.896;2023-07-13T02:46:19;99363.72;;;21.58;100.00
8069;BME280;4077;43.702;24.896;2023-07-13T02:48:45;99361.16;;;21.56;100.00
8069;BME280;4077;43.702;24.896;2023-07-13T02:51:11;99364.47;;;21.62;100.00
8069;BME280;4077;43.702;24.896;2023-07-13T02:53:37;99355.47;;;21.69;100.00
8069;BME280;4077;43.702;24.896;2023-07-13T02:56:03;99370.63;;;21.61;100.00
8069;BME280;4077;43.702;24.896;2023-07-13T02:58:28;99362.03;;;21.57;100.00
8069;BME280;4077;43.702;24.896;2023-07-13T03:00:55;99356.78;;;21.57;100.00
8069;BME280;4077;43.702;24.896;2023-07-13T03:03:21;99356.13;;;21.50;100.00
8069;BME280;4077;43.702;24.896;2023-07-13T03:05:46;99359.63;;;21.51;100.00
8069;BME280;4077;43.702;24.896;2023-07-13T03:08:16;99351.59;;;21.54;100.00
8069;BME280;4077;43.702;24.896;2023-07-13T03:10:42;99363.94;;;21.52;100.00
8069;BME280;4077;43.702;24.896;2023-07-13T03:13:08;99361.91;;;21.60;100.00
8069;BME280;4077;43.702;24.896;2023-07-13T03:15:33;99361.00;;;21.61;100.00
8069;BME280;4077;43.702;24.896;2023-07-13T03:18:10;99358.84;;;21.72;100.00
8069;BME280;4077;43.702;24.896;2023-07-13T03:20:36;99364.78;;;21.77;100.00
8069;BME280;4077;43.702;24.896;2023-07-13T03:23:01;99369.06;;;21.80;100.00
8069;BME280;4077;43.702;24.896;2023-07-13T03:25:28;99373.25;;;21.85;100.00
8069;BME280;4077;43.702;24.896;2023-07-13T03:27:54;99376.66;;;21.88;100.00
8069;BME280;4077;43.702;24.896;2023-07-13T03:30:19;99366.38;;;21.81;100.00
8069;BME280;4077;43.702;24.896;2023-07-13T03:32:44;99367.31;;;21.80;100.00
8069;BME280;4077;43.702;24.896;2023-07-13T03:35:10;99361.13;;;21.81;100.00
8069;BME280;4077;43.702;24.896;2023-07-13T03:37:35;99357.94;;;21.73;100.00
8069;BME280;4077;43.702;24.896;2023-07-13T03:40:08;99351.19;;;21.66;100.00
8069;BME280;4077;43.702;24.896;2023-07-13T03:42:34;99358.97;;;21.69;100.00
8069;BME280;4077;43.702;24.896;2023-07-13T03:45:00;99353.00;;;21.64;100.00
8069;BME280;4077;43.702;24.896;2023-07-13T03:47:25;99375.31;;;21.77;100.00
8069;BME280;4077;43.702;24.896;2023-07-13T03:49:50;99363.09;;;21.76;100.00
8069;BME280;4077;43.702;24.896;2023-07-13T03:52:16;99359.19;;;21.87;100.00
8069;BME280;4077;43.702;24.896;2023-07-13T03:54:41;99367.56;;;21.98;100.00
8069;BME280;4077;43.702;24.896;2023-07-13T03:57:08;99370.63;;;21.85;100.00
8069;BME280;4077;43.702;24.896;2023-07-13T03:59:33;99365.59;;;22.03;100.00
8069;BME280;4077;43.702;24.896;2023-07-13T04:01:59;99371.59;;;22.06;100.00
8069;BME280;4077;43.702;24.896;2023-07-13T04:04:24;99376.94;;;22.28;100.00
8069;BME280;4077;43.702;24.896;2023-07-13T04:06:50;99370.72;;;22.31;100.00
8069;BME280;4077;43.702;24.896;2023-07-13T04:09:17;99370.53;;;22.35;100.00
8069;BME280;4077;43.702;24.896;2023-07-13T04:11:43;99371.81;;;22.47;100.00
8069;BME280;4077;43.702;24.896;2023-07-13T04:14:09;99376.09;;;22.50;100.00
8069;BME280;4077;43.702;24.896;2023-07-13T04:16:35;99379.56;;;22.52;100.00
8069;BME280;4077;43.702;24.896;2023-07-13T04:19:00;99374.06;;;22.58;100.00
8069;BME280;4077;43.702;24.896;2023-07-13T04:21:30;99371.13;;;22.65;100.00
8069;BME280;4077;43.702;24.896;2023-07-13T04:23:56;99373.75;;;22.65;100.00
8069;BME280;4077;43.702;24.896;2023-07-13T04:26:22;99374.28;;;22.74;100.00
8069;BME280;4077;43.702;24.896;2023-07-13T04:28:48;99383.47;;;22.85;100.00
8069;BME280;4077;43.702;24.896;2023-07-13T04:31:14;99384.44;;;22.83;100.00
8069;BME280;4077;43.702;24.896;2023-07-13T04:33:40;99383.44;;;22.87;100.00
8069;BME280;4077;43.702;24.896;2023-07-13T04:36:06;99377.13;;;22.91;100.00
8069;BME280;4077;43.702;24.896;2023-07-13T04:38:35;99390.78;;;23.01;100.00
8069;BME280;4077;43.702;24.896;2023-07-13T04:41:04;99394.72;;;23.11;100.00
8069;BME280;4077;43.702;24.896;2023-07-13T04:43:31;99403.06;;;23.22;100.00
8069;BME280;4077;43.702;24.896;2023-07-13T04:46:02;99390.41;;;23.30;100.00
8069;BME280;4077;43.702;24.896;2023-07-13T04:48:28;99393.19;;;23.47;100.00
8069;BME280;4077;43.702;24.896;2023-07-13T04:50:57;99410.94;;;23.64;100.00
8069;BME280;4077;43.702;24.896;2023-07-13T04:53:24;99406.53;;;23.65;100.00
8069;BME280;4077;43.702;24.896;2023-07-13T04:55:50;99405.81;;;23.60;100.00
8069;BME280;4077;43.702;24.896;2023-07-13T04:58:16;99403.94;;;23.84;100.00
8069;BME280;4077;43.702;24.896;2023-07-13T05:00:41;99410.72;;;23.89;100.00
8069;BME280;4077;43.702;24.896;2023-07-13T05:03:07;99399.97;;;23.94;100.00
8069;BME280;4077;43.702;24.896;2023-07-13T05:05:32;99411.66;;;24.07;100.00
8069;BME280;4077;43.702;24.896;2023-07-13T05:07:58;99416.25;;;24.22;100.00
8069;BME280;4077;43.702;24.896;2023-07-13T05:10:23;99416.38;;;24.40;100.00
8069;BME280;4077;43.702;24.896;2023-07-13T05:12:49;99426.66;;;24.65;100.00
8069;BME280;4077;43.702;24.896;2023-07-13T05:15:15;99419.06;;;24.76;100.00
8069;BME280;4077;43.702;24.896;2023-07-13T05:17:41;99426.94;;;24.95;100.00
8069;BME280;4077;43.702;24.896;2023-07-13T05:20:07;99429.50;;;25.15;100.00
8069;BME280;4077;43.702;24.896;2023-07-13T05:22:35;99425.97;;;25.33;100.00
8069;BME280;4077;43.702;24.896;2023-07-13T05:25:02;99428.28;;;25.57;100.00
8069;BME280;4077;43.702;24.896;2023-07-13T05:27:28;99437.03;;;25.76;100.00
8069;BME280;4077;43.702;24.896;2023-07-13T05:29:53;99421.97;;;25.94;100.00
8069;BME280;4077;43.702;24.896;2023-07-13T05:32:19;99440.13;;;26.17;100.00
8069;BME280;4077;43.702;24.896;2023-07-13T05:34:44;99443.50;;;26.37;100.00
8069;BME280;4077;43.702;24.896;2023-07-13T05:37:10;99450.63;;;26.52;100.00
8069;BME280;4077;43.702;24.896;2023-07-13T05:39:35;99450.63;;;26.68;100.00
8069;BME280;4077;43.702;24.896;2023-07-13T05:42:02;99451.56;;;26.83;100.00
8069;BME280;4077;43.702;24.896;2023-07-13T05:44:27;99463.19;;;26.96;100.00
8069;BME280;4077;43.702;24.896;2023-07-13T05:46:53;99454.91;;;27.02;100.00
8069;BME280;4077;43.702;24.896;2023-07-13T05:49:20;99457.84;;;27.13;100.00
8069;BME280;4077;43.702;24.896;2023-07-13T05:51:45;99462.78;;;27.19;100.00
8069;BME280;4077;43.702;24.896;2023-07-13T05:54:11;99470.66;;;27.21;100.00
8069;BME280;4077;43.702;24.896;2023-07-13T05:56:36;99476.84;;;27.36;100.00
8069;BME280;4077;43.702;24.896;2023-07-13T05:59:02;99469.75;;;27.52;100.00
8069;BME280;4077;43.702;24.896;2023-07-13T06:01:27;99473.97;;;27.70;100.00
8069;BME280;4077;43.702;24.896;2023-07-13T06:03:52;99480.25;;;27.84;100.00
8069;BME280;4077;43.702;24.896;2023-07-13T06:06:18;99476.50;;;27.88;100.00
8069;BME280;4077;43.702;24.896;2023-07-13T06:08:43;99481.22;;;27.97;100.00
8069;BME280;4077;43.702;24.896;2023-07-13T06:11:29;99476.50;;;28.16;100.00
8069;BME280;4077;43.702;24.896;2023-07-13T06:13:55;99481.63;;;28.19;100.00
8069;BME280;4077;43.702;24.896;2023-07-13T06:16:21;99481.19;;;28.41;100.00
8069;BME280;4077;43.702;24.896;2023-07-13T06:18:47;99484.88;;;28.53;100.00
8069;BME280;4077;43.702;24.896;2023-07-13T06:21:18;99489.63;;;28.62;100.00
8069;BME280;4077;43.702;24.896;2023-07-13T06:23:46;99493.81;;;28.52;100.00
8069;BME280;4077;43.702;24.896;2023-07-13T06:26:13;99482.97;;;28.55;100.00
8069;BME280;4077;43.702;24.896;2023-07-13T06:28:38;99491.13;;;28.66;100.00
8069;BME280;4077;43.702;24.896;2023-07-13T06:31:07;99496.63;;;28.77;100.00
8069;BME280;4077;43.702;24.896;2023-07-13T06:33:33;99486.66;;;28.81;100.00
8069;BME280;4077;43.702;24.896;2023-07-13T06:35:58;99499.53;;;28.87;100.00
8069;BME280;4077;43.702;24.896;2023-07-13T06:38:24;99496.13;;;28.85;100.00
8069;BME280;4077;43.702;24.896;2023-07-13T06:40:49;99495.94;;;28.88;100.00
8069;BME280;4077;43.702;24.896;2023-07-13T06:43:15;99488.16;;;28.99;100.00
8069;BME280;4077;43.702;24.896;2023-07-13T06:45:45;99496.84;;;29.15;99.95
8069;BME280;4077;43.702;24.896;2023-07-13T06:48:15;99495.19;;;29.27;98.74
8069;BME280;4077;43.702;24.896;2023-07-13T06:50:42;99492.31;;;29.30;97.52
8069;BME280;4077;43.702;24.896;2023-07-13T06:53:08;99498.59;;;29.29;97.83
8069;BME280;4077;43.702;24.896;2023-07-13T06:55:34;99489.13;;;29.25;92.90
8069;BME280;4077;43.702;24.896;2023-07-13T06:57:59;99494.28;;;29.14;93.91
8069;BME280;4077;43.702;24.896;2023-07-13T07:00:25;99469.66;;;29.25;91.18
8069;BME280;4077;43.702;24.896;2023-07-13T07:02:50;99489.66;;;29.57;89.28
8069;BME280;4077;43.702;24.896;2023-07-13T07:05:16;99486.94;;;29.84;89.32
8069;BME280;4077;43.702;24.896;2023-07-13T07:07:41;99488.38;;;30.03;86.07
8069;BME280;4077;43.702;24.896;2023-07-13T07:10:07;99492.09;;;30.38;86.09
8069;BME280;4077;43.702;24.896;2023-07-13T07:12:33;99503.59;;;31.14;79.33
8069;BME280;4077;43.702;24.896;2023-07-13T07:14:58;99507.38;;;31.59;76.01
8069;BME280;4077;43.702;24.896;2023-07-13T07:17:24;99507.75;;;31.66;73.76
8069;BME280;4077;43.702;24.896;2023-07-13T07:19:50;99512.56;;;31.61;72.67
8069;BME280;4077;43.702;24.896;2023-07-13T07:22:15;99516.56;;;31.55;69.03
8069;BME280;4077;43.702;24.896;2023-07-13T07:24:41;99510.34;;;31.43;64.51
8069;BME280;4077;43.702;24.896;2023-07-13T07:27:06;99512.38;;;31.40;66.46
8069;BME280;4077;43.702;24.896;2023-07-13T07:29:32;99505.34;;;31.39;66.09
8069;BME280;4077;43.702;24.896;2023-07-13T07:31:59;99514.78;;;31.67;64.15
8069;BME280;4077;43.702;24.896;2023-07-13T07:34:25;99502.50;;;31.88;62.14
8069;BME280;4077;43.702;24.896;2023-07-13T07:36:50;99515.69;;;32.25;60.97
8069;BME280;4077;43.702;24.896;2023-07-13T07:39:15;99513.91;;;32.59;61.40
8069;BME280;4077;43.702;24.896;2023-07-13T07:41:41;99521.44;;;32.76;58.20
8069;BME280;4077;43.702;24.896;2023-07-13T07:44:08;99519.03;;;32.62;59.26
8069;BME280;4077;43.702;24.896;2023-07-13T07:46:35;99523.53;;;32.61;59.88
8069;BME280;4077;43.702;24.896;2023-07-13T07:49:00;99512.72;;;32.74;61.52
8069;BME280;4077;43.702;24.896;2023-07-13T07:51:25;99521.56;;;32.97;59.23
8069;BME280;4077;43.702;24.896;2023-07-13T07:53:51;99531.38;;;33.08;58.09
8069;BME280;4077;43.702;24.896;2023-07-13T07:56:17;99529.19;;;33.24;59.00
8069;BME280;4077;43.702;24.896;2023-07-13T07:58:42;99524.75;;;33.45;56.15
8069;BME280;4077;43.702;24.896;2023-07-13T08:01:08;99532.66;;;33.79;56.12
8069;BME280;4077;43.702;24.896;2023-07-13T08:03:34;99527.47;;;33.66;53.95
8069;BME280;4077;43.702;24.896;2023-07-13T08:06:00;99524.31;;;33.61;55.09
8069;BME280;4077;43.702;24.896;2023-07-13T08:08:25;99523.63;;;33.48;54.75
8069;BME280;4077;43.702;24.896;2023-07-13T08:10:51;99520.25;;;33.46;54.06
8069;BME280;4077;43.702;24.896;2023-07-13T08:13:16;99523.56;;;33.27;53.14
8069;BME280;4077;43.702;24.896;2023-07-13T08:15:42;99519.13;;;32.83;54.50
8069;BME280;4077;43.702;24.896;2023-07-13T08:18:07;99526.44;;;32.92;56.14
8069;BME280;4077;43.702;24.896;2023-07-13T08:20:37;99515.69;;;33.14;57.09
8069;BME280;4077;43.702;24.896;2023-07-13T08:23:03;99515.69;;;33.14;56.48
8069;BME280;4077;43.702;24.896;2023-07-13T08:25:29;99514.69;;;33.27;54.81
8069;BME280;4077;43.702;24.896;2023-07-13T08:27:54;99515.19;;;33.20;54.67
8069;BME280;4077;43.702;24.896;2023-07-13T08:30:20;99512.47;;;33.32;55.10
8069;BME280;4077;43.702;24.896;2023-07-13T08:32:45;99509.91;;;33.41;54.41
8069;BME280;4077;43.702;24.896;2023-07-13T08:35:11;99506.16;;;33.44;53.02
8069;BME280;4077;43.702;24.896;2023-07-13T08:37:37;99511.91;;;33.60;54.30
8069;BME280;4077;43.702;24.896;2023-07-13T08:40:02;99511.66;;;33.20;53.80
8069;BME280;4077;43.702;24.896;2023-07-13T08:42:45;99521.31;;;33.00;53.96
8069;BME280;4077;43.702;24.896;2023-07-13T08:47:56;99521.09;;;32.92;54.53
8069;BME280;4077;43.702;24.896;2023-07-13T08:50:33;99512.22;;;33.03;55.65
8069;BME280;4077;43.702;24.896;2023-07-13T08:53:02;99522.91;;;33.35;55.42
8069;BME280;4077;43.702;24.896;2023-07-13T08:55:35;99524.13;;;33.53;53.91
8069;BME280;4077;43.702;24.896;2023-07-13T08:58:22;99534.72;;;33.75;53.60
8069;BME280;4077;43.702;24.896;2023-07-13T09:03:39;99519.28;;;34.00;53.29
8069;BME280;4077;43.702;24.896;2023-07-13T09:06:06;99523.47;;;33.93;52.36
8069;BME280;4077;43.702;24.896;2023-07-13T09:08:49;99525.31;;;34.13;52.17
8069;BME280;4077;43.702;24.896;2023-07-13T09:14:30;99525.34;;;34.23;52.48
8069;BME280;4077;43.702;24.896;2023-07-13T09:16:59;99532.59;;;34.32;50.83
8069;BME280;4077;43.702;24.896;2023-07-13T09:19:30;99528.53;;;34.38;51.63
8069;BME280;4077;43.702;24.896;2023-07-13T09:21:59;99532.06;;;34.38;50.76
8069;BME280;4077;43.702;24.896;2023-07-13T09:24:47;99530.34;;;34.58;51.26
8069;BME280;4077;43.702;24.896;2023-07-13T09:27:30;99524.66;;;34.82;50.10
8069;BME280;4077;43.702;24.896;2023-07-13T09:32:31;99528.19;;;35.32;49.27
8069;BME280;4077;43.702;24.896;2023-07-13T09:34:58;99530.34;;;35.58;48.26
8069;BME280;4077;43.702;24.896;2023-07-13T09:37:30;99523.81;;;36.09;46.63
8069;BME280;4077;43.702;24.896;2023-07-13T09:39:58;99526.16;;;36.78;45.82
8069;BME280;4077;43.702;24.896;2023-07-13T09:42:25;99529.72;;;36.79;43.69
8069;BME280;4077;43.702;24.896;2023-07-13T09:47:23;99545.25;;;37.58;42.21
8069;BME280;4077;43.702;24.896;2023-07-13T09:49:55;99548.47;;;38.41;41.46
8069;BME280;4077;43.702;24.896;2023-07-13T09:52:21;99548.94;;;38.36;41.80
8069;BME280;4077;43.702;24.896;2023-07-13T09:54:49;99553.25;;;38.73;40.56
8069;BME280;4077;43.702;24.896;2023-07-13T09:57:19;99560.84;;;38.77;40.93
8069;BME280;4077;43.702;24.896;2023-07-13T09:59:50;99554.09;;;37.68;41.58
8069;BME280;4077;43.702;24.896;2023-07-13T10:02:33;99557.59;;;37.42;43.94
8069;BME280;4077;43.702;24.896;2023-07-13T10:05:05;99551.63;;;36.93;44.08
8069;BME280;4077;43.702;24.896;2023-07-13T10:07:32;99547.38;;;36.54;44.50
8069;BME280;4077;43.702;24.896;2023-07-13T10:09:59;99537.53;;;36.25;44.26
8069;BME280;4077;43.702;24.896;2023-07-13T10:12:29;99536.84;;;35.75;44.02
8069;BME280;4077;43.702;24.896;2023-07-13T10:14:57;99522.72;;;35.44;44.25
8069;BME280;4077;43.702;24.896;2023-07-13T10:17:30;99522.44;;;35.47;43.80
8069;BME280;4077;43.702;24.896;2023-07-13T10:20:01;99512.22;;;35.41;43.35
8069;BME280;4077;43.702;24.896;2023-07-13T10:22:52;99506.28;;;35.37;43.87
8069;BME280;4077;43.702;24.896;2023-07-13T10:25:22;99502.09;;;35.44;44.12
8069;BME280;4077;43.702;24.896;2023-07-13T10:27:51;99484.41;;;35.51;43.70
8069;BME280;4077;43.702;24.896;2023-07-13T10:30:27;99481.44;;;35.64;43.61
8069;BME280;4077;43.702;24.896;2023-07-13T10:32:58;99479.97;;;35.89;43.79
8069;BME280;4077;43.702;24.896;2023-07-13T10:35:27;99479.59;;;35.94;43.26
8069;BME280;4077;43.702;24.896;2023-07-13T10:38:00;99484.78;;;36.14;43.04
8069;BME280;4077;43.702;24.896;2023-07-13T10:40:34;99483.88;;;36.33;44.08
8069;BME280;4077;43.702;24.896;2023-07-13T10:43:06;99479.44;;;36.52;43.37
8069;BME280;4077;43.702;24.896;2023-07-13T10:45:35;99484.59;;;36.63;41.98
8069;BME280;4077;43.702;24.896;2023-07-13T10:48:03;99477.97;;;36.57;43.29
8069;BME280;4077;43.702;24.896;2023-07-13T10:50:29;99482.13;;;36.52;43.52
8069;BME280;4077;43.702;24.896;2023-07-13T10:53:20;99478.94;;;36.66;43.75
8069;BME280;4077;43.702;24.896;2023-07-13T10:58:28;99473.06;;;36.80;43.91
8069;BME280;4077;43.702;24.896;2023-07-13T11:03:32;99455.91;;;36.81;43.58
8069;BME280;4077;43.702;24.896;2023-07-13T11:08:58;99445.56;;;36.59;43.52
8069;BME280;4077;43.702;24.896;2023-07-13T11:21:16;99418.41;;;35.20;44.57
8069;BME280;4077;43.702;24.896;2023-07-13T11:23:43;99403.31;;;35.09;44.43
8069;BME280;4077;43.702;24.896;2023-07-13T11:26:42;99392.53;;;35.38;44.76
8069;BME280;4077;43.702;24.896;2023-07-13T11:31:58;99383.38;;;35.31;44.66
8069;BME280;4077;43.702;24.896;2023-07-13T11:34:34;99391.84;;;35.07;45.62
8069;BME280;4077;43.702;24.896;2023-07-13T11:37:01;99382.41;;;35.42;45.22
8069;BME280;4077;43.702;24.896;2023-07-13T11:39:39;99382.50;;;35.69;45.03
8069;BME280;4077;43.702;24.896;2023-07-13T11:42:12;99395.28;;;36.04;44.45
8069;BME280;4077;43.702;24.896;2023-07-13T11:44:42;99394.19;;;36.25;43.93
8069;BME280;4077;43.702;24.896;2023-07-13T11:47:19;99390.44;;;36.35;43.37
8069;BME280;4077;43.702;24.896;2023-07-13T11:49:53;99382.22;;;36.47;41.24
8069;BME280;4077;43.702;24.896;2023-07-13T11:52:25;99402.03;;;36.46;41.70
8069;BME280;4077;43.702;24.896;2023-07-13T11:54:55;99399.66;;;36.05;42.87
8069;BME280;4077;43.702;24.896;2023-07-13T11:57:31;99392.31;;;35.98;42.97
8069;BME280;4077;43.702;24.896;2023-07-13T12:00:01;99390.91;;;35.94;42.79
8069;BME280;4077;43.702;24.896;2023-07-13T12:02:30;99388.06;;;35.95;43.37
8069;BME280;4077;43.702;24.896;2023-07-13T12:04:57;99385.69;;;35.82;42.82
8069;BME280;4077;43.702;24.896;2023-07-13T12:07:23;99376.97;;;35.61;42.98
8069;BME280;4077;43.702;24.896;2023-07-13T12:09:49;99375.44;;;35.58;43.58
8069;BME280;4077;43.702;24.896;2023-07-13T12:12:22;99376.69;;;35.64;42.86
8069;BME280;4077;43.702;24.896;2023-07-13T12:14:52;99387.97;;;35.77;42.89
8069;BME280;4077;43.702;24.896;2023-07-13T12:17:24;99382.31;;;35.90;43.55
8069;BME280;4077;43.702;24.896;2023-07-13T12:19:52;99375.09;;;35.91;43.07
8069;BME280;4077;43.702;24.896;2023-07-13T12:22:19;99364.91;;;35.84;42.11
8069;BME280;4077;43.702;24.896;2023-07-13T12:24:46;99371.56;;;35.80;42.79
8069;BME280;4077;43.702;24.896;2023-07-13T12:27:29;99371.75;;;35.69;42.74
8069;BME280;4077;43.702;24.896;2023-07-13T12:30:24;99373.38;;;35.80;42.48
8069;BME280;4077;43.702;24.896;2023-07-13T12:33:01;99367.28;;;35.87;42.17
8069;BME280;4077;43.702;24.896;2023-07-13T12:35:29;99358.44;;;35.77;42.76
8069;BME280;4077;43.702;24.896;2023-07-13T12:37:57;99361.84;;;35.60;42.48
8069;BME280;4077;43.702;24.896;2023-07-13T12:40:31;99355.91;;;35.66;42.41
8069;BME280;4077;43.702;24.896;2023-07-13T12:42:58;99350.56;;;35.56;42.03
8069;BME280;4077;43.702;24.896;2023-07-13T12:45:27;99344.38;;;35.36;41.98
8069;BME280;4077;43.702;24.896;2023-07-13T12:48:14;99339.72;;;35.19;41.47
8069;BME280;4077;43.702;24.896;2023-07-13T12:50:43;99349.63;;;35.28;41.65
8069;BME280;4077;43.702;24.896;2023-07-13T12:53:38;99347.47;;;35.32;41.99
8069;BME280;4077;43.702;24.896;2023-07-13T12:56:03;99345.63;;;35.32;42.69
8069;BME280;4077;43.702;24.896;2023-07-13T12:58:37;99349.16;;;35.33;41.44
8069;BME280;4077;43.702;24.896;2023-07-13T13:01:04;99347.31;;;35.33;41.19
8069;BME280;4077;43.702;24.896;2023-07-13T13:08:40;99348.03;;;35.35;40.76
8069;BME280;4077;43.702;24.896;2023-07-13T13:11:08;99346.63;;;35.31;41.05
8069;BME280;4077;43.702;24.896;2023-07-13T13:13:34;99337.16;;;35.27;40.41
8069;BME280;4077;43.702;24.896;2023-07-13T13:18:35;99339.72;;;35.19;40.44
8069;BME280;4077;43.702;24.896;2023-07-13T13:21:01;99342.97;;;35.13;40.11
8069;BME280;4077;43.702;24.896;2023-07-13T13:23:26;99339.31;;;35.14;38.82
8069;BME280;4077;43.702;24.896;2023-07-13T13:25:52;99343.97;;;35.22;38.13
8069;BME280;4077;43.702;24.896;2023-07-13T13:28:21;99336.47;;;35.25;37.30
8069;BME280;4077;43.702;24.896;2023-07-13T13:30:48;99339.84;;;35.27;37.15
8069;BME280;4077;43.702;24.896;2023-07-13T13:33:17;99348.63;;;35.29;37.35
8069;BME280;4077;43.702;24.896;2023-07-13T13:35:43;99343.25;;;35.29;36.27
8069;BME280;4077;43.702;24.896;2023-07-13T13:38:17;99343.25;;;35.29;37.23
8069;BME280;4077;43.702;24.896;2023-07-13T13:40:45;99342.09;;;35.32;36.14
8069;BME280;4077;43.702;24.896;2023-07-13T13:43:15;99338.31;;;35.34;34.90
8069;BME280;4077;43.702;24.896;2023-07-13T13:45:41;99328.84;;;35.30;35.09
8069;BME280;4077;43.702;24.896;2023-07-13T13:48:35;99319.78;;;35.31;35.26
8069;BME280;4077;43.702;24.896;2023-07-13T13:51:00;99315.00;;;35.35;35.14
8069;BME280;4077;43.702;24.896;2023-07-13T13:53:26;99323.44;;;35.40;35.25
8069;BME280;4077;43.702;24.896;2023-07-13T13:55:52;99310.16;;;35.39;34.63